createdAt,value
2018-11-13T00:00:13.311Z,8.30
2018-11-13T00:02:42.179Z,8.20
2018-11-13T00:05:10.793Z,8.10
2018-11-13T00:07:39.613Z,8.10
2018-11-13T00:10:09.234Z,7.90
2018-11-13T00:12:37.704Z,7.90
2018-11-13T00:15:06.388Z,8.00
2018-11-13T00:17:34.924Z,8.00
2018-11-13T00:20:03.465Z,8.20
2018-11-13T00:22:31.949Z,8.20
2018-11-13T00:25:00.407Z,8.00
2018-11-13T00:27:29.021Z,7.70
2018-11-13T00:29:57.433Z,8.00
2018-11-13T00:32:25.926Z,8.20
2018-11-13T00:34:54.391Z,8.40
2018-11-13T00:37:22.882Z,8.50
2018-11-13T00:39:51.366Z,8.60
2018-11-13T00:42:19.830Z,8.70
2018-11-13T00:44:48.312Z,8.70
2018-11-13T00:47:16.788Z,8.80
2018-11-13T00:49:45.255Z,8.80
2018-11-13T00:52:13.724Z,8.80
2018-11-13T00:54:42.217Z,8.60
2018-11-13T00:57:10.723Z,8.70
2018-11-13T00:59:39.224Z,8.80
2018-11-13T01:02:08.230Z,9.00
2018-11-13T01:04:36.208Z,9.10
2018-11-13T01:07:04.721Z,9.20
2018-11-13T01:09:33.224Z,9.20
2018-11-13T01:12:01.708Z,9.10
2018-11-13T01:14:30.176Z,9.10
2018-11-13T01:16:58.635Z,9.00
2018-11-13T01:19:27.128Z,9.00
2018-11-13T01:21:55.580Z,9.10
2018-11-13T01:24:24.036Z,9.30
2018-11-13T01:26:52.534Z,9.50
2018-11-13T01:29:20.999Z,9.50
2018-11-13T01:31:49.437Z,9.40
2018-11-13T01:34:17.900Z,9.30
2018-11-13T01:36:46.316Z,9.30
2018-11-13T01:39:14.791Z,9.30
2018-11-13T01:41:43.276Z,9.30
2018-11-13T01:44:11.701Z,9.40
2018-11-13T01:46:40.176Z,9.50
2018-11-13T01:49:08.624Z,9.40
2018-11-13T01:51:37.048Z,9.40
2018-11-13T01:54:05.681Z,9.30
2018-11-13T01:56:34.083Z,9.30
2018-11-13T01:59:02.539Z,9.40
2018-11-13T02:01:31.056Z,9.20
2018-11-13T02:03:59.578Z,9.30
2018-11-13T02:06:28.115Z,9.30
2018-11-13T02:08:56.652Z,9.20
2018-11-13T02:11:25.193Z,9.30
2018-11-13T02:13:53.717Z,9.40
2018-11-13T02:16:22.232Z,9.40
2018-11-13T02:18:50.727Z,9.40
2018-11-13T02:21:19.273Z,9.50
2018-11-13T02:23:47.763Z,9.60
2018-11-13T02:26:16.283Z,9.70
2018-11-13T02:28:44.801Z,9.80
2018-11-13T02:31:13.336Z,9.90
2018-11-13T02:33:41.852Z,9.70
2018-11-13T02:36:10.389Z,9.60
2018-11-13T02:38:38.877Z,9.60
2018-11-13T02:41:07.427Z,9.50
2018-11-13T02:43:35.951Z,9.60
2018-11-13T02:46:04.483Z,9.30
2018-11-13T02:48:32.988Z,9.50
2018-11-13T02:51:01.526Z,9.80
2018-11-13T02:53:30.025Z,9.90
2018-11-13T02:55:58.570Z,10.00
2018-11-13T02:58:27.097Z,9.90
2018-11-13T03:00:55.640Z,9.80
2018-11-13T03:03:24.157Z,9.90
2018-11-13T03:05:52.715Z,10.00
2018-11-13T03:08:21.211Z,9.90
2018-11-13T03:10:49.762Z,10.00
2018-11-13T03:13:18.330Z,10.00
2018-11-13T03:15:46.936Z,10.00
2018-11-13T03:18:15.441Z,10.00
2018-11-13T03:20:43.973Z,10.00
2018-11-13T03:23:12.483Z,10.00
2018-11-13T03:25:41.040Z,10.10
2018-11-13T03:28:09.576Z,10.10
2018-11-13T03:30:38.143Z,10.10
2018-11-13T03:33:06.672Z,10.00
2018-11-13T03:35:35.255Z,10.00
2018-11-13T03:38:03.799Z,10.10
2018-11-13T03:40:32.352Z,10.10
2018-11-13T03:43:00.919Z,10.10
2018-11-13T03:45:29.381Z,10.10
2018-11-13T03:47:57.868Z,10.10
2018-11-13T03:50:26.337Z,10.20
2018-11-13T03:52:54.850Z,10.20
2018-11-13T03:55:23.318Z,10.10
2018-11-13T03:57:51.785Z,10.00
2018-11-13T04:00:22.106Z,10.10
2018-11-13T04:02:50.613Z,10.10
2018-11-13T04:05:20.164Z,10.10
2018-11-13T04:07:55.131Z,10.10
2018-11-13T04:10:24.278Z,10.10
2018-11-13T04:12:52.769Z,10.10
2018-11-13T04:15:22.505Z,10.10
2018-11-13T04:17:51.017Z,10.10
2018-11-13T04:20:20.685Z,10.20
2018-11-13T04:22:49.483Z,10.30
2018-11-13T04:25:18.016Z,10.20
2018-11-13T04:27:46.510Z,10.30
2018-11-13T04:30:16.148Z,10.40
2018-11-13T04:32:44.730Z,10.40
2018-11-13T04:35:14.365Z,10.50
2018-11-13T04:37:42.822Z,10.60
2018-11-13T04:40:20.859Z,10.70
2018-11-13T04:42:50.628Z,10.70
2018-11-13T04:45:20.443Z,10.70
2018-11-13T04:47:49.580Z,10.70
2018-11-13T04:50:18.964Z,10.70
2018-11-13T04:52:47.467Z,10.70
2018-11-13T04:55:16.383Z,10.80
2018-11-13T04:57:45.750Z,10.80
2018-11-13T05:00:16.152Z,10.80
2018-11-13T05:02:45.415Z,10.90
2018-11-13T05:05:14.774Z,11.00
2018-11-13T05:07:45.512Z,10.90
2018-11-13T05:10:14.040Z,10.80
2018-11-13T05:12:43.514Z,10.80
2018-11-13T05:15:12.036Z,10.90
2018-11-13T05:17:41.401Z,11.00
2018-11-13T05:20:10.986Z,11.00
2018-11-13T05:22:39.482Z,11.10
2018-11-13T05:25:09.941Z,11.00
2018-11-13T05:27:38.883Z,11.00
2018-11-13T05:30:09.294Z,11.10
2018-11-13T05:32:41.153Z,11.10
2018-11-13T05:35:11.406Z,11.10
2018-11-13T05:37:40.683Z,11.20
2018-11-13T05:40:11.645Z,11.10
2018-11-13T05:42:40.410Z,11.20
2018-11-13T05:45:10.307Z,11.20
2018-11-13T05:47:39.217Z,11.20
2018-11-13T05:50:09.385Z,11.20
2018-11-13T05:52:38.377Z,11.20
2018-11-13T05:55:07.347Z,11.10
2018-11-13T05:57:35.823Z,11.20
2018-11-13T06:00:05.068Z,11.20
2018-11-13T06:02:33.529Z,11.20
2018-11-13T06:05:02.052Z,11.20
2018-11-13T06:07:30.514Z,11.20
2018-11-13T06:09:58.996Z,11.20
2018-11-13T06:12:27.501Z,11.20
2018-11-13T06:14:56.002Z,11.20
2018-11-13T06:17:24.453Z,11.10
2018-11-13T06:19:52.929Z,11.20
2018-11-13T06:22:21.419Z,11.20
2018-11-13T06:24:49.907Z,11.40
2018-11-13T06:27:18.406Z,11.30
2018-11-13T06:29:46.933Z,11.30
2018-11-13T06:32:15.339Z,11.30
2018-11-13T06:34:43.803Z,11.20
2018-11-13T06:37:12.265Z,11.20
2018-11-13T06:39:40.721Z,11.20
2018-11-13T06:42:09.173Z,11.20
2018-11-13T06:44:37.664Z,11.20
2018-11-13T06:47:06.325Z,11.20
2018-11-13T06:49:34.803Z,11.20
2018-11-13T06:52:03.277Z,11.20
2018-11-13T06:54:43.008Z,11.10
2018-11-13T06:57:11.465Z,11.10
2018-11-13T06:59:39.910Z,11.20
2018-11-13T07:02:08.380Z,11.30
2018-11-13T07:04:36.835Z,11.20
2018-11-13T07:07:05.392Z,11.40
2018-11-13T07:09:33.837Z,11.40
2018-11-13T07:12:02.304Z,11.30
2018-11-13T07:14:30.734Z,11.20
2018-11-13T07:16:59.226Z,11.30
2018-11-13T07:19:27.660Z,11.20
2018-11-13T07:21:56.131Z,11.20
2018-11-13T07:24:24.573Z,11.20
2018-11-13T07:26:53.067Z,11.20
2018-11-13T07:29:21.529Z,11.10
2018-11-13T07:31:49.990Z,11.20
2018-11-13T07:34:18.438Z,11.20
2018-11-13T07:36:46.915Z,11.30
2018-11-13T07:39:15.364Z,11.40
2018-11-13T07:41:43.866Z,11.30
2018-11-13T07:44:12.314Z,11.40
2018-11-13T07:46:40.814Z,11.40
2018-11-13T07:49:09.244Z,11.40
2018-11-13T07:51:37.696Z,11.40
2018-11-13T07:54:06.341Z,11.40
2018-11-13T07:56:34.804Z,11.50
2018-11-13T07:59:03.253Z,11.50
2018-11-13T08:01:31.715Z,11.40
2018-11-13T08:04:00.162Z,11.30
2018-11-13T08:06:28.688Z,11.30
2018-11-13T08:08:57.200Z,11.30
2018-11-13T08:11:27.804Z,11.40
2018-11-13T08:13:56.256Z,11.30
2018-11-13T08:16:24.756Z,11.30
2018-11-13T08:18:53.282Z,11.30
2018-11-13T08:21:21.704Z,11.40
2018-11-13T08:23:50.179Z,11.40
2018-11-13T08:26:18.642Z,11.40
2018-11-13T08:28:47.233Z,11.40
2018-11-13T08:31:15.669Z,11.50
2018-11-13T08:33:44.117Z,11.60
2018-11-13T08:36:12.553Z,11.60
2018-11-13T08:38:41.010Z,11.60
2018-11-13T08:41:09.765Z,11.50
2018-11-13T08:43:38.272Z,11.50
2018-11-13T08:46:06.713Z,11.40
2018-11-13T08:48:35.641Z,11.50
2018-11-13T08:51:04.265Z,11.60
2018-11-13T08:53:33.763Z,11.70
2018-11-13T08:56:02.266Z,11.60
2018-11-13T08:58:30.772Z,11.60
2018-11-13T09:00:59.176Z,11.70
2018-11-13T09:03:27.646Z,11.70
2018-11-13T09:05:56.076Z,11.80
2018-11-13T09:08:24.553Z,11.90
2018-11-13T09:10:52.981Z,11.90
2018-11-13T09:13:21.466Z,11.90
2018-11-13T09:15:49.894Z,11.90
2018-11-13T09:18:18.355Z,12.00
2018-11-13T09:20:46.806Z,12.00
2018-11-13T09:23:15.278Z,11.90
2018-11-13T09:25:43.713Z,11.90
2018-11-13T09:28:12.220Z,11.90
2018-11-13T09:30:40.914Z,12.00
2018-11-13T09:33:09.242Z,12.10
2018-11-13T09:35:37.732Z,12.20
2018-11-13T09:38:06.201Z,12.20
2018-11-13T09:40:34.687Z,12.20
2018-11-13T09:43:03.170Z,12.20
2018-11-13T09:45:31.676Z,12.20
2018-11-13T09:48:00.141Z,12.10
2018-11-13T09:50:28.688Z,12.00
2018-11-13T09:52:57.149Z,12.00
2018-11-13T09:55:25.653Z,12.00
2018-11-13T09:57:54.115Z,11.90
2018-11-13T10:00:24.379Z,11.80
2018-11-13T10:02:54.864Z,11.90
2018-11-13T10:05:23.211Z,11.90
2018-11-13T10:07:52.353Z,11.90
2018-11-13T10:10:20.888Z,11.90
2018-11-13T10:12:49.398Z,11.90
2018-11-13T10:15:19.461Z,11.90
2018-11-13T10:17:48.057Z,11.90
2018-11-13T10:20:17.049Z,12.00
2018-11-13T10:22:46.944Z,11.90
2018-11-13T10:25:15.437Z,11.90
2018-11-13T10:27:43.987Z,11.80
2018-11-13T10:30:14.387Z,11.80
2018-11-13T10:32:43.422Z,11.80
2018-11-13T10:35:12.950Z,11.70
2018-11-13T10:37:41.852Z,11.70
2018-11-13T10:40:12.385Z,11.80
2018-11-13T10:42:41.352Z,11.80
2018-11-13T10:45:13.612Z,11.90
2018-11-13T10:47:42.389Z,11.80
2018-11-13T10:50:15.785Z,11.90
2018-11-13T10:52:44.205Z,11.80
2018-11-13T10:55:12.888Z,11.80
2018-11-13T10:57:41.982Z,11.90
2018-11-13T11:00:19.434Z,11.90
2018-11-13T11:02:53.547Z,11.90
2018-11-13T11:05:24.245Z,11.90
2018-11-13T11:07:52.882Z,11.90
2018-11-13T11:10:21.352Z,11.90
2018-11-13T11:12:49.910Z,11.90
2018-11-13T11:15:18.386Z,11.80
2018-11-13T11:17:46.897Z,11.80
2018-11-13T11:20:15.390Z,11.80
2018-11-13T11:22:43.887Z,11.90
2018-11-13T11:25:13.005Z,11.80
2018-11-13T11:27:41.479Z,11.80
2018-11-13T11:30:12.724Z,11.80
2018-11-13T11:32:41.302Z,11.80
2018-11-13T11:35:09.778Z,11.90
2018-11-13T11:37:38.999Z,11.90
2018-11-13T11:40:07.625Z,11.90
2018-11-13T11:42:36.159Z,11.90
2018-11-13T11:45:05.523Z,11.90
2018-11-13T11:47:33.995Z,12.20
2018-11-13T11:50:02.417Z,12.10
2018-11-13T11:52:30.885Z,12.20
2018-11-13T11:54:59.309Z,12.20
2018-11-13T11:57:27.767Z,12.30
2018-11-13T11:59:56.246Z,12.30
2018-11-13T12:02:24.705Z,12.50
2018-11-13T12:04:53.153Z,12.60
2018-11-13T12:07:21.632Z,12.80
2018-11-13T12:09:50.094Z,12.60
2018-11-13T12:12:18.661Z,12.80
2018-11-13T12:14:47.041Z,13.00
2018-11-13T12:17:15.484Z,13.00
2018-11-13T12:19:43.924Z,12.90
2018-11-13T12:22:12.409Z,12.90
2018-11-13T12:24:40.851Z,12.60
2018-11-13T12:27:09.324Z,12.60
2018-11-13T12:29:37.797Z,12.50
2018-11-13T12:32:06.300Z,12.60
2018-11-13T12:34:34.801Z,12.70
2018-11-13T12:37:03.211Z,12.70
2018-11-13T12:39:31.673Z,13.00
2018-11-13T12:42:00.140Z,13.20
2018-11-13T12:44:28.636Z,13.30
2018-11-13T12:46:57.125Z,13.20
2018-11-13T12:49:25.756Z,13.00
2018-11-13T12:51:59.583Z,13.00
2018-11-13T12:54:31.461Z,13.10
2018-11-13T12:56:59.894Z,13.10
2018-11-13T12:59:28.353Z,13.00
2018-11-13T13:01:56.858Z,13.00
2018-11-13T13:04:25.312Z,13.10
2018-11-13T13:06:53.771Z,13.00
2018-11-13T13:09:22.238Z,12.90
2018-11-13T13:11:50.672Z,12.90
2018-11-13T13:14:19.415Z,12.90
2018-11-13T13:16:47.856Z,12.90
2018-11-13T13:19:16.360Z,12.80
2018-11-13T13:21:44.851Z,12.90
2018-11-13T13:24:13.286Z,13.20
2018-11-13T13:26:41.716Z,13.20
2018-11-13T13:29:10.289Z,13.20
2018-11-13T13:31:38.796Z,13.40
2018-11-13T13:34:07.268Z,13.50
2018-11-13T13:36:35.752Z,13.60
2018-11-13T13:39:05.593Z,13.40
2018-11-13T13:41:34.114Z,13.40
2018-11-13T13:44:02.626Z,13.40
2018-11-13T13:46:31.155Z,13.40
2018-11-13T13:48:59.617Z,13.30
2018-11-13T13:51:28.106Z,13.30
2018-11-13T13:53:56.674Z,13.20
2018-11-13T13:56:25.174Z,13.10
2018-11-13T13:58:53.664Z,13.10
2018-11-13T14:01:22.147Z,13.00
2018-11-13T14:03:50.618Z,13.00
2018-11-13T14:06:19.112Z,12.90
2018-11-13T14:08:47.574Z,12.90
2018-11-13T14:11:16.278Z,12.90
2018-11-13T14:13:44.742Z,12.90
2018-11-13T14:16:13.229Z,12.90
2018-11-13T14:18:41.722Z,12.90
2018-11-13T14:21:10.275Z,12.80
2018-11-13T14:23:38.684Z,12.90
2018-11-13T14:26:07.197Z,12.90
2018-11-13T14:28:35.693Z,12.80
2018-11-13T14:31:04.179Z,12.80
2018-11-13T14:33:32.651Z,12.70
2018-11-13T14:36:01.151Z,12.70
2018-11-13T14:38:29.640Z,12.70
2018-11-13T14:40:58.130Z,12.60
2018-11-13T14:43:26.626Z,12.60
2018-11-13T14:45:55.110Z,12.50
2018-11-13T14:48:27.966Z,12.40
2018-11-13T14:50:59.573Z,12.50
2018-11-13T14:53:28.052Z,12.50
2018-11-13T14:55:56.561Z,12.50
2018-11-13T14:58:25.010Z,12.40
2018-11-13T15:00:53.496Z,12.40
2018-11-13T15:03:21.974Z,12.30
2018-11-13T15:05:50.477Z,12.30
2018-11-13T15:08:18.944Z,12.20
2018-11-13T15:10:51.309Z,12.20
2018-11-13T15:13:20.474Z,12.10
2018-11-13T15:15:49.001Z,12.10
2018-11-13T15:18:17.548Z,12.10
2018-11-13T15:20:46.649Z,12.00
2018-11-13T15:23:15.533Z,12.00
2018-11-13T15:25:44.066Z,12.00
2018-11-13T15:28:12.998Z,12.00
2018-11-13T15:30:47.726Z,11.90
2018-11-13T15:33:19.532Z,11.80
2018-11-13T15:35:48.031Z,11.80
2018-11-13T15:38:16.557Z,11.70
2018-11-13T15:40:45.189Z,11.80
2018-11-13T15:44:55.002Z,11.80
2018-11-13T15:47:23.433Z,11.80
2018-11-13T15:49:51.907Z,11.80
2018-11-13T15:52:20.521Z,11.80
2018-11-13T15:54:48.911Z,11.70
2018-11-13T15:57:17.418Z,11.70
2018-11-13T15:59:45.892Z,11.60
2018-11-13T16:02:14.472Z,11.50
2018-11-13T16:04:42.958Z,11.50
2018-11-13T16:07:11.460Z,11.50
2018-11-13T16:09:39.923Z,11.50
2018-11-13T16:12:08.414Z,11.50
2018-11-13T16:14:36.866Z,11.50
2018-11-13T16:17:05.419Z,11.40
2018-11-13T16:19:33.942Z,11.30
2018-11-13T16:22:02.425Z,11.30
2018-11-13T16:24:30.899Z,11.20
2018-11-13T16:26:59.401Z,11.00
2018-11-13T16:29:27.865Z,11.00
2018-11-13T16:31:56.330Z,11.00
2018-11-13T16:34:24.873Z,11.00
2018-11-13T16:36:53.374Z,11.00
2018-11-13T16:39:21.833Z,11.00
2018-11-13T16:41:54.371Z,10.90
2018-11-13T16:44:22.827Z,10.80
2018-11-13T16:46:51.376Z,10.80
2018-11-13T16:49:19.847Z,10.80
2018-11-13T16:51:48.279Z,10.80
2018-11-13T16:54:16.781Z,10.80
2018-11-13T16:56:47.854Z,10.70
2018-11-13T16:59:16.323Z,10.70
2018-11-13T17:01:45.753Z,10.70
2018-11-13T17:04:14.220Z,10.70
2018-11-13T17:06:42.822Z,10.60
2018-11-13T17:09:11.994Z,10.40
2018-11-13T17:11:40.522Z,10.40
2018-11-13T17:14:08.969Z,10.40
2018-11-13T17:16:37.413Z,10.30
2018-11-13T17:19:05.881Z,10.40
2018-11-13T17:21:34.320Z,10.30
2018-11-13T17:24:02.785Z,10.20
2018-11-13T17:26:31.269Z,10.30
2018-11-13T17:28:59.732Z,10.20
2018-11-13T17:31:28.217Z,10.00
2018-11-13T17:33:56.653Z,9.90
2018-11-13T17:36:25.102Z,10.10
2018-11-13T17:38:53.565Z,9.90
2018-11-13T17:41:22.036Z,9.70
2018-11-13T17:43:50.481Z,9.70
2018-11-13T17:46:18.953Z,9.70
2018-11-13T17:48:47.403Z,9.50
2018-11-13T17:51:16.846Z,9.50
2018-11-13T17:53:45.299Z,9.50
2018-11-13T17:56:13.725Z,9.40
2018-11-13T17:58:42.200Z,9.30
2018-11-13T18:01:10.671Z,9.30
2018-11-13T18:03:39.125Z,9.10
2018-11-13T18:06:07.593Z,9.00
2018-11-13T18:08:36.037Z,8.90
2018-11-13T18:11:04.870Z,8.90
2018-11-13T18:13:33.331Z,9.00
2018-11-13T18:16:01.835Z,9.00
2018-11-13T18:18:30.293Z,9.10
2018-11-13T18:20:58.736Z,9.20
2018-11-13T18:23:27.229Z,9.20
2018-11-13T18:25:55.643Z,9.30
2018-11-13T18:28:24.215Z,9.40
2018-11-13T18:30:52.641Z,9.40
2018-11-13T18:33:21.114Z,9.50
2018-11-13T18:35:49.670Z,9.50
2018-11-13T18:38:18.231Z,9.50
2018-11-13T18:40:46.672Z,9.60
2018-11-13T18:43:15.141Z,9.50
2018-11-13T18:45:43.618Z,9.40
2018-11-13T18:48:12.115Z,9.40
2018-11-13T18:50:43.562Z,9.50
2018-11-13T18:53:12.027Z,9.40
2018-11-13T18:55:40.560Z,9.40
2018-11-13T18:58:09.071Z,9.30
2018-11-13T19:00:39.013Z,9.20
2018-11-13T19:03:08.857Z,9.20
2018-11-13T19:05:37.373Z,9.20
2018-11-13T19:08:06.425Z,9.20
2018-11-13T19:10:41.483Z,9.20
2018-11-13T19:13:12.550Z,9.10
2018-11-13T19:15:54.063Z,9.10
2018-11-13T19:18:22.789Z,9.10
2018-11-13T19:20:51.568Z,9.00
2018-11-13T19:23:20.735Z,8.80
2018-11-13T19:25:49.216Z,8.70
2018-11-13T19:28:17.728Z,8.70
2018-11-13T19:30:46.206Z,8.70
2018-11-13T19:33:14.680Z,8.70
2018-11-13T19:35:43.306Z,8.70
2018-11-13T19:38:11.676Z,8.60
2018-11-13T19:40:40.182Z,8.50
2018-11-13T19:43:09.700Z,8.50
2018-11-13T19:45:38.205Z,8.60
2018-11-13T19:48:06.736Z,8.40
2018-11-13T19:50:36.181Z,8.30
2018-11-13T19:53:04.852Z,8.30
2018-11-13T19:55:41.517Z,8.40
2018-11-13T19:58:09.997Z,8.40
2018-11-13T20:00:39.421Z,8.40
2018-11-13T20:03:09.158Z,8.30
2018-11-13T20:05:50.127Z,8.40
2018-11-13T20:08:24.246Z,8.30
2018-11-13T20:10:53.853Z,8.20
2018-11-13T20:13:23.384Z,8.00
2018-11-13T20:15:51.949Z,8.00
2018-11-13T20:18:20.466Z,8.00
2018-11-13T20:20:48.993Z,7.90
2018-11-13T20:23:17.493Z,7.90
2018-11-13T20:25:46.050Z,7.80
2018-11-13T20:28:14.550Z,7.80
2018-11-13T20:30:43.544Z,7.80
2018-11-13T20:33:16.662Z,7.90
2018-11-13T20:35:45.120Z,7.90
2018-11-13T20:38:13.596Z,7.80
2018-11-13T20:40:42.041Z,7.90
2018-11-13T20:43:11.843Z,7.80
2018-11-13T20:45:40.296Z,7.70
2018-11-13T20:48:08.795Z,7.70
2018-11-13T20:50:37.271Z,7.60
2018-11-13T20:56:02.472Z,7.60
2018-11-13T20:58:30.951Z,7.50
2018-11-13T21:01:13.666Z,7.50
2018-11-13T21:03:42.213Z,7.50
2018-11-13T21:06:11.721Z,7.50
2018-11-13T21:08:47.615Z,7.30
2018-11-13T21:11:15.878Z,7.30
2018-11-13T21:13:44.394Z,7.20
2018-11-13T21:16:14.973Z,7.00
2018-11-13T21:18:43.406Z,6.50
2018-11-13T21:21:34.428Z,6.20
2018-11-13T21:24:05.147Z,5.80
2018-11-13T21:26:33.541Z,5.90
2018-11-13T21:29:02.063Z,6.00
2018-11-13T21:31:42.085Z,5.90
2018-11-13T21:34:10.608Z,6.10
2018-11-13T21:36:39.118Z,6.20
2018-11-13T21:39:09.669Z,6.20
2018-11-13T21:41:38.343Z,6.40
2018-11-13T21:44:07.133Z,6.40
2018-11-13T21:46:35.677Z,5.90
2018-11-13T21:49:04.595Z,5.90
2018-11-13T21:51:33.599Z,6.00
2018-11-13T21:54:03.110Z,5.90
2018-11-13T21:56:31.637Z,6.10
2018-11-13T21:59:00.133Z,6.10
2018-11-13T22:01:28.654Z,6.20
2018-11-13T22:03:57.233Z,6.20
2018-11-13T22:06:25.679Z,6.00
2018-11-13T22:08:54.250Z,5.80
2018-11-13T22:11:23.197Z,5.90
2018-11-13T22:13:51.692Z,5.90
2018-11-13T22:16:20.147Z,5.50
2018-11-13T22:18:48.639Z,5.30
2018-11-13T22:21:17.223Z,5.30
2018-11-13T22:23:45.621Z,5.40
2018-11-13T22:26:14.142Z,5.50
2018-11-13T22:28:42.816Z,5.40
2018-11-13T22:31:11.159Z,5.30
2018-11-13T22:33:39.614Z,5.50
2018-11-13T22:36:08.169Z,5.50
2018-11-13T22:38:36.612Z,5.30
2018-11-13T22:41:05.219Z,5.20
2018-11-13T22:43:33.665Z,5.10
2018-11-13T22:46:02.167Z,5.20
2018-11-13T22:48:30.627Z,4.90
2018-11-13T22:50:59.433Z,4.90
2018-11-13T22:53:27.590Z,5.10
2018-11-13T22:55:56.092Z,5.00
2018-11-13T22:58:24.540Z,4.70
2018-11-13T23:00:53.059Z,4.90
2018-11-13T23:03:21.505Z,4.70
2018-11-13T23:05:50.427Z,4.70
2018-11-13T23:08:20.302Z,4.70
2018-11-13T23:10:49.589Z,4.60
2018-11-13T23:13:18.037Z,4.70
2018-11-13T23:15:46.514Z,4.80
2018-11-13T23:18:14.981Z,4.80
2018-11-13T23:20:43.472Z,4.80
2018-11-13T23:23:11.942Z,4.70
2018-11-13T23:25:40.432Z,4.60
2018-11-13T23:28:09.097Z,4.60
2018-11-13T23:30:37.463Z,4.60
2018-11-13T23:33:06.457Z,4.50
2018-11-13T23:35:34.609Z,4.50
2018-11-13T23:38:03.395Z,4.60
2018-11-13T23:40:31.551Z,4.60
2018-11-13T23:42:59.982Z,4.40
2018-11-13T23:45:28.397Z,4.40
2018-11-13T23:47:56.844Z,4.60
2018-11-13T23:50:25.528Z,4.60
2018-11-13T23:52:53.797Z,4.50
2018-11-13T23:55:22.228Z,4.20
2018-11-13T23:57:50.668Z,4.20
